createdAt,value
2022-08-25T00:02:39.042Z,8.15
2022-08-25T00:05:42.216Z,10.00
2022-08-25T00:08:47.874Z,9.98
2022-08-25T00:11:51.368Z,9.30
2022-08-25T00:14:55.421Z,8.57
2022-08-25T00:17:58.508Z,9.38
2022-08-25T00:21:01.328Z,8.65
2022-08-25T00:24:06.004Z,8.18
2022-08-25T00:27:09.538Z,9.33
2022-08-25T00:30:15.931Z,9.90
2022-08-25T00:33:19.509Z,9.00
2022-08-25T00:36:22.681Z,9.10
2022-08-25T00:39:28.016Z,8.25
2022-08-25T00:42:31.523Z,9.07
2022-08-25T00:45:35.488Z,9.10
2022-08-25T00:48:42.308Z,9.88
2022-08-25T00:51:51.492Z,9.43
2022-08-25T00:55:04.299Z,7.55
2022-08-25T00:58:17.166Z,8.80
2022-08-25T01:01:20.040Z,9.23
2022-08-25T01:04:23.899Z,7.70
2022-08-25T01:07:26.719Z,8.68
2022-08-25T01:10:32.238Z,9.32
2022-08-25T01:13:38.963Z,9.23
2022-08-25T01:16:43.927Z,9.17
2022-08-25T01:19:46.577Z,8.52
2022-08-25T01:22:54.997Z,8.98
2022-08-25T01:26:04.975Z,8.50
2022-08-25T01:29:22.792Z,8.77
2022-08-25T01:32:26.043Z,8.87
2022-08-25T01:35:28.878Z,7.82
2022-08-25T01:38:32.903Z,9.30
2022-08-25T01:41:47.956Z,8.10
2022-08-25T01:44:54.524Z,8.13
2022-08-25T01:47:57.376Z,9.73
2022-08-25T01:51:00.013Z,8.27
2022-08-25T01:54:04.233Z,8.82
2022-08-25T01:57:06.983Z,8.27
2022-08-25T02:00:13.407Z,10.30
2022-08-25T02:03:18.768Z,9.13
2022-08-25T02:06:29.812Z,10.40
2022-08-25T02:09:34.787Z,8.85
2022-08-25T02:12:37.626Z,8.57
2022-08-25T02:15:43.039Z,8.93
2022-08-25T02:18:46.479Z,8.63
2022-08-25T02:21:49.125Z,8.30
2022-08-25T02:24:55.519Z,8.55
2022-08-25T02:27:58.396Z,8.35
2022-08-25T02:31:01.885Z,8.33
2022-08-25T02:34:05.358Z,8.90
2022-08-25T02:37:09.720Z,10.07
2022-08-25T02:40:14.412Z,8.68
2022-08-25T02:43:17.374Z,10.20
2022-08-25T02:46:21.854Z,9.00
2022-08-25T02:49:25.340Z,9.30
2022-08-25T02:52:28.104Z,9.45
2022-08-25T02:55:33.703Z,8.93
2022-08-25T02:58:38.567Z,8.68
2022-08-25T03:01:41.684Z,8.43
2022-08-25T03:04:45.243Z,8.13
2022-08-25T03:07:48.110Z,9.35
2022-08-25T03:10:52.919Z,9.77
2022-08-25T03:13:56.623Z,8.80
2022-08-25T03:16:59.419Z,8.83
2022-08-25T03:20:02.336Z,8.70
2022-08-25T03:23:06.086Z,10.27
2022-08-25T03:26:33.803Z,9.87
2022-08-25T03:29:36.520Z,8.70
2022-08-25T03:32:40.025Z,9.18
2022-08-25T03:35:42.971Z,8.93
2022-08-25T03:38:46.228Z,10.77
2022-08-25T03:41:51.628Z,9.87
2022-08-25T03:44:54.805Z,11.30
2022-08-25T03:47:57.834Z,9.60
2022-08-25T03:51:00.903Z,11.27
2022-08-25T03:54:05.261Z,11.32
2022-08-25T03:57:09.796Z,11.13
2022-08-25T04:00:13.208Z,13.03
2022-08-25T04:03:16.568Z,16.48
2022-08-25T04:06:20.318Z,12.57
2022-08-25T04:09:23.655Z,12.65
2022-08-25T04:12:27.670Z,12.10
2022-08-25T04:15:30.466Z,13.53
2022-08-25T04:18:34.282Z,13.55
2022-08-25T04:21:37.853Z,10.60
2022-08-25T04:24:40.630Z,13.48
2022-08-25T04:27:44.726Z,13.17
2022-08-25T04:30:51.838Z,11.63
2022-08-25T04:33:55.307Z,12.13
2022-08-25T04:36:58.251Z,14.15
2022-08-25T04:40:01.085Z,14.10
2022-08-25T04:43:05.148Z,13.57
2022-08-25T04:46:11.292Z,12.30
2022-08-25T04:49:14.059Z,12.73
2022-08-25T04:52:17.057Z,13.10
2022-08-25T04:55:20.131Z,13.23
2022-08-25T04:58:24.258Z,11.97
2022-08-25T05:01:27.298Z,12.57
2022-08-25T05:04:31.232Z,13.50
2022-08-25T05:07:33.952Z,11.88
2022-08-25T05:10:41.230Z,13.20
2022-08-25T05:13:51.273Z,14.13
2022-08-25T05:16:55.142Z,10.97
2022-08-25T05:19:58.011Z,15.10
2022-08-25T05:23:00.659Z,12.18
2022-08-25T05:26:05.987Z,10.80
2022-08-25T05:29:10.940Z,13.40
2022-08-25T05:32:13.605Z,11.93
2022-08-25T05:35:16.589Z,11.50
2022-08-25T05:38:20.074Z,11.88
2022-08-25T05:41:28.402Z,13.38
2022-08-25T05:44:32.395Z,14.93
2022-08-25T05:47:35.444Z,13.77
2022-08-25T05:50:38.061Z,12.60
2022-08-25T05:53:43.013Z,13.93
2022-08-25T05:56:46.468Z,13.75
2022-08-25T05:59:50.664Z,14.67
2022-08-25T06:02:52.370Z,15.30
2022-08-25T06:05:55.269Z,16.63
2022-08-25T06:08:58.054Z,15.98
2022-08-25T06:12:00.687Z,14.95
2022-08-25T06:15:06.107Z,18.63
2022-08-25T06:18:08.834Z,14.47
2022-08-25T06:21:13.719Z,14.27
2022-08-25T06:24:16.536Z,15.90
2022-08-25T06:27:19.476Z,16.65
2022-08-25T06:30:28.559Z,16.03
2022-08-25T06:33:32.386Z,16.80
2022-08-25T06:36:35.695Z,16.02
2022-08-25T06:39:38.431Z,20.30
2022-08-25T06:42:41.151Z,20.52
2022-08-25T06:45:45.153Z,20.73
2022-08-25T06:48:48.414Z,17.30
2022-08-25T06:51:51.257Z,15.15
2022-08-25T06:54:54.643Z,15.90
2022-08-25T06:57:57.297Z,18.23
2022-08-25T07:01:13.449Z,17.90
2022-08-25T07:04:18.745Z,19.47
2022-08-25T07:07:21.407Z,17.38
2022-08-25T07:10:24.476Z,22.63
2022-08-25T07:13:27.273Z,18.95
2022-08-25T07:16:34.273Z,15.80
2022-08-25T07:19:37.004Z,17.83
2022-08-25T07:22:40.169Z,21.63
2022-08-25T07:25:42.879Z,16.33
2022-08-25T07:28:47.439Z,15.32
2022-08-25T07:31:51.961Z,16.13
2022-08-25T07:35:12.531Z,19.00
2022-08-25T07:38:19.653Z,16.50
2022-08-25T07:41:23.825Z,16.58
2022-08-25T07:44:27.999Z,17.45
2022-08-25T07:47:32.717Z,19.73
2022-08-25T07:50:36.201Z,23.47
2022-08-25T07:53:40.169Z,17.20
2022-08-25T07:56:43.272Z,16.30
2022-08-25T07:59:46.920Z,16.88
2022-08-25T08:02:51.140Z,15.03
2022-08-25T08:05:56.462Z,16.77
2022-08-25T08:09:00.013Z,17.60
2022-08-25T08:12:02.724Z,19.17
2022-08-25T08:15:10.382Z,21.38
2022-08-25T08:18:15.987Z,19.13
2022-08-25T08:21:21.741Z,16.10
2022-08-25T08:24:40.627Z,16.15
2022-08-25T08:27:47.173Z,17.58
2022-08-25T08:30:53.713Z,14.80
2022-08-25T08:33:58.986Z,18.53
2022-08-25T08:37:02.035Z,17.77
2022-08-25T08:40:07.207Z,17.00
2022-08-25T08:43:18.953Z,18.35
2022-08-25T08:46:25.944Z,20.95
2022-08-25T08:49:38.844Z,17.70
2022-08-25T08:52:46.163Z,17.17
2022-08-25T08:55:56.767Z,19.33
2022-08-25T08:59:06.310Z,20.42
2022-08-25T09:02:22.100Z,21.20
2022-08-25T09:05:48.340Z,20.43
2022-08-25T09:08:51.361Z,16.90
2022-08-25T09:12:09.706Z,17.23
2022-08-25T09:15:20.381Z,17.60
2022-08-25T09:18:30.097Z,17.85
2022-08-25T09:21:41.459Z,19.93
2022-08-25T09:24:58.133Z,17.33
2022-08-25T09:28:08.460Z,19.23
2022-08-25T09:31:18.832Z,17.33
2022-08-25T09:34:25.643Z,20.35
2022-08-25T09:37:29.866Z,17.73
2022-08-25T09:40:35.322Z,16.30
2022-08-25T09:43:42.611Z,16.25
2022-08-25T09:46:57.124Z,18.23
2022-08-25T09:50:05.320Z,17.05
2022-08-25T09:53:17.619Z,19.23
2022-08-25T09:56:24.367Z,17.80
2022-08-25T09:59:35.196Z,19.40
2022-08-25T10:02:38.621Z,18.42
2022-08-25T10:06:02.714Z,18.15
2022-08-25T10:09:09.751Z,17.60
2022-08-25T10:12:18.794Z,18.77
2022-08-25T10:15:30.327Z,19.75
2022-08-25T10:18:33.468Z,20.15
2022-08-25T10:21:38.333Z,20.77
2022-08-25T10:24:44.150Z,19.80
2022-08-25T10:27:54.975Z,21.17
2022-08-25T10:31:09.706Z,20.65
2022-08-25T10:34:26.419Z,16.67
2022-08-25T10:37:38.313Z,17.40
2022-08-25T10:40:49.847Z,15.83
2022-08-25T10:44:03.965Z,19.60
2022-08-25T10:47:34.540Z,17.65
2022-08-25T10:50:45.464Z,15.50
2022-08-25T10:53:58.053Z,17.98
2022-08-25T10:57:13.053Z,14.13
2022-08-25T11:00:19.601Z,15.53
2022-08-25T11:03:38.920Z,14.18
2022-08-25T11:06:52.708Z,14.82
2022-08-25T11:10:04.087Z,10.95
2022-08-25T11:13:15.734Z,13.17
2022-08-25T11:16:23.237Z,13.13
2022-08-25T11:19:32.782Z,11.48
2022-08-25T11:22:43.642Z,10.93
2022-08-25T11:25:50.525Z,11.00
2022-08-25T11:29:02.543Z,11.43
2022-08-25T11:32:06.293Z,10.87
2022-08-25T11:35:13.076Z,14.18
2022-08-25T11:38:29.964Z,11.05
2022-08-25T11:41:41.699Z,11.60
2022-08-25T11:44:56.079Z,12.07
2022-08-25T11:48:11.645Z,10.70
2022-08-25T11:51:33.802Z,11.30
2022-08-25T11:54:44.379Z,11.07
2022-08-25T11:57:53.587Z,8.80
2022-08-25T12:01:00.140Z,12.30
2022-08-25T12:04:14.850Z,10.53
2022-08-25T12:07:25.035Z,12.65
2022-08-25T12:10:55.945Z,10.75
2022-08-25T12:14:16.194Z,14.93
2022-08-25T12:17:39.621Z,13.77
2022-08-25T12:21:30.744Z,10.33
2022-08-25T12:24:51.618Z,10.25
2022-08-25T12:28:04.896Z,12.07
2022-08-25T12:31:23.142Z,12.45
2022-08-25T12:34:51.411Z,11.30
2022-08-25T12:37:56.973Z,10.20
2022-08-25T12:41:04.686Z,10.60
2022-08-25T12:44:21.022Z,12.70
2022-08-25T12:47:32.430Z,11.27
2022-08-25T12:50:43.250Z,9.33
2022-08-25T12:53:49.450Z,10.20
2022-08-25T12:56:56.184Z,10.07
2022-08-25T13:00:05.664Z,10.43
2022-08-25T13:07:03.028Z,10.67
2022-08-25T13:10:21.472Z,10.80
2022-08-25T13:13:40.671Z,13.80
2022-08-25T13:16:54.442Z,11.48
2022-08-25T13:20:18.153Z,14.05
2022-08-25T13:23:29.207Z,10.33
2022-08-25T13:26:34.871Z,10.83
2022-08-25T13:29:51.562Z,9.35
2022-08-25T13:32:55.768Z,12.70
2022-08-25T13:36:17.574Z,11.98
2022-08-25T13:39:45.526Z,11.87
2022-08-25T13:42:55.583Z,12.47
2022-08-25T13:45:58.879Z,11.95
2022-08-25T13:49:08.765Z,10.95
2022-08-25T13:52:19.239Z,11.27
2022-08-25T13:55:51.507Z,11.50
2022-08-25T13:58:56.426Z,12.90
2022-08-25T14:02:00.173Z,10.77
2022-08-25T14:05:03.578Z,10.13
2022-08-25T14:08:31.767Z,12.23
2022-08-25T14:11:44.900Z,13.57
2022-08-25T14:14:59.656Z,13.30
2022-08-25T14:18:07.275Z,10.52
2022-08-25T14:21:12.019Z,15.40
2022-08-25T14:24:18.030Z,14.27
2022-08-25T14:27:26.596Z,10.67
2022-08-25T14:30:29.695Z,11.70
2022-08-25T14:33:38.533Z,13.50
2022-08-25T14:36:41.384Z,10.80
2022-08-25T14:39:48.093Z,10.60
2022-08-25T14:42:52.154Z,10.27
2022-08-25T14:45:54.833Z,12.07
2022-08-25T14:49:00.478Z,10.93
2022-08-25T14:52:09.813Z,11.80
2022-08-25T14:55:13.852Z,10.60
2022-08-25T14:58:34.995Z,10.77
2022-08-25T15:01:51.626Z,13.07
2022-08-25T15:04:57.634Z,11.98
2022-08-25T15:08:18.418Z,11.80
2022-08-25T15:11:21.542Z,10.10
2022-08-25T15:14:29.088Z,9.47
2022-08-25T15:17:36.115Z,11.23
2022-08-25T15:20:39.905Z,10.85
2022-08-25T15:23:44.576Z,11.43
2022-08-25T15:30:00.852Z,11.33
2022-08-25T15:33:03.847Z,10.43
2022-08-25T15:36:11.208Z,11.38
2022-08-25T15:39:19.103Z,11.10
2022-08-25T15:42:22.676Z,11.02
2022-08-25T15:45:29.055Z,10.03
2022-08-25T15:48:33.789Z,11.20
2022-08-25T15:51:37.223Z,11.30
2022-08-25T15:54:40.705Z,12.93
2022-08-25T15:57:44.674Z,11.23
2022-08-25T16:00:56.267Z,12.13
2022-08-25T16:04:00.006Z,13.47
2022-08-25T16:07:02.604Z,14.13
2022-08-25T16:10:07.424Z,12.13
2022-08-25T16:13:11.377Z,12.88
2022-08-25T16:16:16.228Z,10.83
2022-08-25T16:19:18.959Z,13.53
2022-08-25T16:22:21.750Z,10.35
2022-08-25T16:25:25.472Z,12.10
2022-08-25T16:28:28.487Z,12.13
2022-08-25T16:31:32.687Z,11.27
2022-08-25T16:34:35.946Z,11.30
2022-08-25T16:37:38.649Z,10.98
2022-08-25T16:40:43.812Z,12.00
2022-08-25T16:43:47.818Z,11.13
2022-08-25T16:46:54.309Z,10.80
2022-08-25T16:49:57.349Z,11.53
2022-08-25T16:53:29.899Z,12.45
2022-08-25T16:56:35.279Z,11.65
2022-08-25T16:59:39.777Z,12.75
2022-08-25T17:02:44.483Z,11.70
2022-08-25T17:05:48.708Z,12.90
2022-08-25T17:08:52.896Z,12.45
2022-08-25T17:11:57.128Z,12.70
2022-08-25T17:14:59.981Z,12.57
2022-08-25T17:18:04.029Z,9.43
2022-08-25T17:21:09.815Z,13.80
2022-08-25T17:24:15.218Z,13.65
2022-08-25T17:27:18.659Z,10.52
2022-08-25T17:30:21.622Z,15.15
2022-08-25T17:33:25.772Z,13.57
2022-08-25T17:36:31.328Z,10.17
2022-08-25T17:39:34.767Z,11.57
2022-08-25T17:42:37.508Z,10.52
2022-08-25T17:45:40.821Z,10.90
2022-08-25T17:48:45.569Z,10.90
2022-08-25T17:51:48.375Z,13.80
2022-08-25T17:54:52.593Z,18.77
2022-08-25T17:57:55.927Z,9.85
2022-08-25T18:00:59.510Z,13.75
2022-08-25T18:04:06.382Z,11.17
2022-08-25T18:07:19.795Z,10.50
2022-08-25T18:10:22.826Z,11.70
2022-08-25T18:13:26.693Z,10.75
2022-08-25T18:16:31.296Z,11.85
2022-08-25T18:19:35.339Z,10.40
2022-08-25T18:22:41.659Z,9.83
2022-08-25T18:25:48.811Z,11.98
2022-08-25T18:28:51.628Z,11.73
2022-08-25T18:31:59.680Z,13.18
2022-08-25T18:35:06.266Z,14.47
2022-08-25T18:38:27.322Z,10.50
2022-08-25T18:41:36.975Z,11.25
2022-08-25T18:44:43.768Z,10.90
2022-08-25T18:47:53.178Z,12.30
2022-08-25T18:50:58.072Z,10.20
2022-08-25T18:54:02.353Z,13.13
2022-08-25T18:57:08.337Z,11.35
2022-08-25T19:00:15.814Z,13.77
2022-08-25T19:03:21.834Z,10.57
2022-08-25T19:06:25.858Z,12.33
2022-08-25T19:09:28.800Z,15.57
2022-08-25T19:12:33.864Z,15.32
2022-08-25T19:15:42.348Z,12.45
2022-08-25T19:18:46.166Z,10.55
2022-08-25T19:21:50.857Z,13.10
2022-08-25T19:24:53.893Z,9.63
2022-08-25T19:27:58.459Z,11.10
2022-08-25T19:31:04.305Z,11.07
2022-08-25T19:34:08.530Z,14.70
2022-08-25T19:37:14.196Z,9.80
2022-08-25T19:40:19.579Z,10.43
2022-08-25T19:43:22.943Z,12.45
2022-08-25T19:46:33.019Z,11.77
2022-08-25T19:49:38.423Z,11.70
2022-08-25T19:52:45.105Z,10.77
2022-08-25T19:55:48.619Z,11.87
2022-08-25T19:58:51.743Z,12.38
2022-08-25T20:01:54.603Z,10.55
2022-08-25T20:04:59.958Z,10.75
2022-08-25T20:08:05.631Z,12.80
2022-08-25T20:11:08.404Z,11.80
2022-08-25T20:14:12.176Z,11.40
2022-08-25T20:17:24.190Z,11.90
2022-08-25T20:20:32.373Z,9.50
2022-08-25T20:23:55.922Z,10.53
2022-08-25T20:26:59.126Z,11.40
2022-08-25T20:30:03.258Z,10.95
2022-08-25T20:33:08.149Z,11.40
2022-08-25T20:36:15.050Z,10.45
2022-08-25T20:39:20.332Z,9.13
2022-08-25T20:42:22.991Z,9.87
2022-08-25T20:45:26.036Z,10.55
2022-08-25T20:48:29.256Z,9.88
2022-08-25T20:51:32.200Z,10.35
2022-08-25T20:54:36.977Z,12.10
2022-08-25T20:57:39.789Z,11.93
2022-08-25T21:00:42.919Z,12.55
2022-08-25T21:03:45.602Z,11.07
2022-08-25T21:06:51.414Z,10.48
2022-08-25T21:09:55.632Z,10.47
2022-08-25T21:12:58.597Z,10.67
2022-08-25T21:16:03.665Z,12.38
2022-08-25T21:19:11.068Z,9.75
2022-08-25T21:22:13.832Z,11.75
2022-08-25T21:25:18.925Z,10.73
2022-08-25T21:28:21.719Z,9.63
2022-08-25T21:31:24.637Z,11.68
2022-08-25T21:34:28.883Z,10.18
2022-08-25T21:37:32.071Z,9.77
2022-08-25T21:40:37.424Z,11.80
2022-08-25T21:43:40.226Z,11.67
2022-08-25T21:46:53.816Z,11.30
2022-08-25T21:49:57.742Z,10.73
2022-08-25T21:53:00.444Z,12.23
2022-08-25T21:56:06.194Z,12.40
2022-08-25T21:59:10.829Z,12.27
2022-08-25T22:02:19.172Z,11.80
2022-08-25T22:05:24.506Z,11.40
2022-08-25T22:08:30.610Z,11.70
2022-08-25T22:11:36.097Z,10.77
2022-08-25T22:14:39.520Z,11.40
2022-08-25T22:17:42.734Z,11.23
2022-08-25T22:20:45.570Z,12.30
2022-08-25T22:23:48.373Z,12.25
2022-08-25T22:26:52.418Z,11.57
2022-08-25T22:29:57.088Z,14.70
2022-08-25T22:33:00.015Z,10.63
2022-08-25T22:36:03.129Z,14.45
2022-08-25T22:39:07.785Z,11.05
2022-08-25T22:42:12.194Z,10.77
2022-08-25T22:45:14.834Z,14.30
2022-08-25T22:48:20.819Z,12.20
2022-08-25T22:51:25.588Z,12.37
2022-08-25T22:54:28.767Z,11.02
2022-08-25T22:57:35.366Z,11.30
2022-08-25T23:00:40.088Z,10.68
2022-08-25T23:03:44.422Z,11.97
2022-08-25T23:06:47.455Z,11.57
2022-08-25T23:09:50.120Z,11.18
2022-08-25T23:12:54.313Z,11.98
2022-08-25T23:15:57.005Z,10.32
2022-08-25T23:19:00.388Z,10.77
2022-08-25T23:22:12.644Z,10.50
2022-08-25T23:25:17.038Z,10.75
2022-08-25T23:28:22.599Z,11.52
2022-08-25T23:31:25.283Z,12.75
2022-08-25T23:34:28.760Z,12.37
2022-08-25T23:37:31.418Z,11.93
2022-08-25T23:40:35.087Z,10.40
2022-08-25T23:43:40.428Z,13.10
2022-08-25T23:46:44.564Z,11.27
2022-08-25T23:49:48.088Z,11.83
2022-08-25T23:52:51.204Z,11.27
2022-08-25T23:55:54.635Z,12.38
2022-08-25T23:58:59.709Z,13.43
